Relevés horaires Beauvechain (Belgique)


Relevés horaires à Beauvechain - Lundi 01 Avr. 2019
Heure UTC1 Température [°C] Vent [km/h] Hum. [%] Pres.4 [hPa] Visi. [Km] Nébu. [octa] Préc.5 [mm] Cond.
2m. Res. Ros. Dir.2 Vit. Moy. Raf.3
23:00 10.2 10.2 3.1 ESE 3.7 -- 7.4 61 1013.8(-1.8/3h) 13 -- -- --
22:00 10.3 10.3 3.0 E 3.7 -- 5.6 60 1014.6(-1.3/3h) 13 -- -- --
21:00 11.6 11.6 2.8 E 3.7 -- 7.4 55 1015.1(-0.8/3h) 15 -- -- --
20:00 12.1 12.1 2.5 E 3.7 -- 7.4 52 1015.6(-0.5/3h) 15 4/8 -- --
19:00 11.5 11.5 3.2 E 3.7 -- 5.6 57 1015.8(-0.9/3h) 17 1/8 -- --
18:00 12.9 12.9 3.6 E 3.7 -- 11.1 53 1015.8(-1.5/3h) 20 0/8 -- --
17:00 14.4 14.4 4.0 ENE 5.6 -- 11.1 50 1016.1(-2.1/3h) 20 0/8 -- --
16:00 15.5 15.5 3.2 ENE 5.6 -- 11.1 44 1016.7(-2.3/3h) 20 0/8 -- --
15:00 15.4 15.4 3.7 ENE 7.4 -- 11.1 46 1017.3(-2.5/3h) 20 0/8 -- --
14:00 15.1 15.1 3.3 NE 7.4 -- 11.1 45 1018.2(-2.4/3h) 20 0/8 -- --
13:00 14.0 14.0 3.4 NE 5.6 -- 11.1 49 1019.2(-2.2/3h) 20 0/8 -- --
12:00 12.7 12.7 3.9 ENE 5.6 -- 13.0 55 1020.2(-1.7/3h) 20 0/8 -- --
11:00 10.7 10 3.2 ENE 7.4 -- 9.3 60 1021(-1.1/3h) 20 0/8 -- --
10:00 8.5 7.4 1.9 NE 7.4 -- 9.3 63 1021.7(-0.7/3h) 20 0/8 -- --
09:00 6.6 5.7 1.3 NE 5.6 -- 13.0 69 1022.2(-0.5/3h) 20 1/8 -- --
08:00 4.4 2.6 -0.2 ENE 7.4 -- 13.0 72 1022.5(-0.3/3h) 20 1/8 -- --
07:00 2.7 0.6 -0.9 ENE 7.4 -- 11.1 77 1022.8(-0.2/3h) 20 1/8 -- --
06:00 1.7 -0.6 -1.2 NE 7.4 -- 14.8 81 1023.1(-0.2/3h) 20 2/8 -- --
05:00 1.8 -0.4 -1.2 NE 7.4 -- 11.1 80 1023(-0.5/3h) 20 -- -- --
04:00 2.5 -0.2 -1.1 ENE 9.3 -- 13.0 77 1023.1(-0.6/3h) 20 -- -- --
03:00 3.2 0.7 -0.8 ENE 9.3 -- 14.8 75 1023.2(-0.3/3h) 20 -- -- --
02:00 3.9 1.5 -- NE 9.3 -- 13.0 -- 1023.3(-0.5/3h) 20 -- -- --
01:00 5.0 2.8 0.3 NE 9.3 -- 14.8 72 1023.6(-0.5/3h) 20 -- -- --
00:00 5.6 3.5 1.6 NE 9.3 -- 14.8 75 1023.6(-0.7/3h) 20 -- -- --

1 Coordinated Universal Time. Actuellement il est 20:00 locale et 19:00 UTC.

2 Le vent souffle depuis la direction indiquée vers la direction oposée.

3 Les rafales max. sont disponible 40 min après l'heure du relevé.

4 Pour les stations d'altitude (plus de 600m) le géopotentiel du niveau le plus proche de la pression obligatoire est indiqué.

5 Les stations disposant d'un diffuseur peuvent indiquer "trace". Cela signifie que des précipitations ont touchés le sol mais que la quantité est inférieure à 0.1 mm.

Récapitulatif de la journée
Température [°C] Vent [km/h] Ensoleillement4 [h] Precipitations totale5 [mm] Pression [Hpa]
Min1 Max.2 Moy.3 Max. Min Max.
1.6 15.8 0 14.8 0 h 0 min 0 1013.8 1023.6

1 Température minimale relevée entre 18:00 UTC la veille et 18:00 UTC le jour donné.

2 Température maximale relevée entre 06:00 UTC le jour donné et 06:00 UTC le lendemain.

3 Vent moyen de la journée basé sur les relevés horaires.

4 Ensoleillement en heures relevé entre 06:00 UTC la veille et 06:00 UTC le jour donné.

5 Précipitations totales tombées entre 06:00 UTC la jour donné et 06:00 UTC le lendemain.

Graphiques horaires